Santa Teresa, NM

3:47 PM MDT on August 21, 2014 (GMT -0600)
Santa Teresa | Change Station
CLOSE
Current Station
Personal Weather Station
Location: Santa Teresa, NM
Elevation: 3811 ft
Nearby Weather Stations

Elev 3811 ft 31.87 °N, 106.65 °W | Updated 14 seconds ago

Partly Cloudy
Partly Cloudy
91.9 °F
Feels Like 89 °F
N
3.0
Wind Variable Wind from West
Gusts 11.0 mph

Today
High -- | Low -- °F
--% Chance of Precip.
Yesterday
High -- | Low -- °F
Precip. -- in
6:35 AM 7:43 PM
Waning Crescent, 12% visible
Pressure 29.84 in
Visibility 10.0 miles
Clouds Few 21000 ft
Heat Index 89 °F
Dew Point 52 °F
Humidity 26%
Rainfall 0.00 in
Snow Depth Not available.
UV 9 out of 12
Pollen 7.90 out of 12
Air Quality Not available.
Flu Activity Not available.
METAR KBIF 212056Z 26008G12KT 10SM FEW210 33/09 A3006 RMK AO2A SLP105 T03320088 57017

More Conditions Fewer Conditions

Pressure 29.84 in
Visibility 10.0 miles
Clouds Few 21000 ft
Heat Index 89 °F
Dew Point 52 °F
Humidity 26%
Rainfall 0.00 in
Snow Depth Not available.
UV 9 out of 12
Pollen 7.90 out of 12
Air Quality Not available.
Flu Activity Not available.
METAR KBIF 212056Z 26008G12KT 10SM FEW210 33/09 A3006 RMK AO2A SLP105 T03320088 57017

More Conditions Fewer Conditions

10-Day Weather Forecast

Almanac

Astronomy

Aug. 21, 2014 Rise Set
Actual Time 6:35 AM MDT 7:43 PM MDT
Civil Twilight 6:09 AM MDT 8:08 PM MDT
Nautical Twilight 5:39 AM MDT 8:38 PM MDT
Astronomical Twilight 5:08 AM MDT 9:10 PM MDT
Moon 3:13 AM MDT 5:09 PM MDT
Length of Visible Light 13h 59m
Length of Day
13h 08m
Tomorrow will be 1m 47s shorter.
Waning Crescent, 12% of the Moon is Illuminated
Today
Waning Crescent
Aug 25
New
Sep 2
First Quarter
Sep 8
Full
Sep 15
Last Quarter

Today's Extremes

State Highs State Lows

Community

WunderPhotos

Upload Photos

1,746,021 photos uploaded!

WunderBlogs® & News

Nearby

Snow Depth

Station Depth Elevation
Silver Creek Divide 17 in 9000 ft
Wesner Springs 1 in 11120 ft
Quemazon 0 in 9500 ft
Red River Pass #2 0 in 9850 ft
North Costilla 0 in 10600 ft

Earthquake Activity

City Distance Mag. Time & Date
No recent earthquake activity has been reported nearby.
Minimum magnitude displayed is 2.5.

Coastal Water Temperatures

Place Temperature
No Stations Reporting

Nearby Weather Stations